Time;durP1;ratioP1;P1;durP2;ratioP2;P2;SDS_P1;SDS_P2;PMS_P1;PMS_P2;Temp;Humidity;BMP_temperature;BMP_pressure;BME280_temperature;BME280_humidity;BME280_pressure;Samples;Min_cycle;Max_cycle;Signal;HPM_P1;HPM_P2
2022/10/05 00:01:22;;;;;;;14.77;4.95;;;14.60;99.90;;;;;;4974280;28;20601;-64
2022/10/05 00:03:49;;;;;;;9.02;4.93;;;14.60;99.90;;;;;;5001640;28;20355;-63
2022/10/05 00:06:16;;;;;;;7.00;4.22;;;14.60;99.90;;;;;;4988479;28;20210;-63
2022/10/05 00:08:43;;;;;;;7.25;4.38;;;14.60;99.90;;;;;;4983781;28;20576;-63
2022/10/05 00:11:14;;;;;;;8.45;4.68;;;14.60;99.90;;;;;;4998455;28;20703;-64
2022/10/05 00:13:42;;;;;;;7.63;5.25;;;14.60;99.90;;;;;;4965637;28;20753;-64
2022/10/05 00:16:15;;;;;;;9.95;5.45;;;14.60;99.90;;;;;;4994730;28;20206;-64
2022/10/05 00:18:45;;;;;;;7.38;4.63;;;14.60;99.90;;;;;;4965328;28;20198;-63
2022/10/05 00:21:21;;;;;;;8.73;4.32;;;14.70;99.90;;;;;;4997957;28;20266;-63
2022/10/05 00:23:48;;;;;;;8.05;5.07;;;14.70;99.90;;;;;;4984807;28;20217;-64
2022/10/05 00:26:20;;;;;;;5.75;4.30;;;14.70;99.90;;;;;;5000496;28;20210;-63
2022/10/05 00:28:48;;;;;;;6.00;4.32;;;15.30;99.90;;;;;;4970863;28;20335;-64
2022/10/05 00:31:19;;;;;;;8.60;4.50;;;14.50;99.90;;;;;;4997728;28;20238;-63
2022/10/05 00:33:46;;;;;;;8.75;4.28;;;14.70;99.90;;;;;;4965117;28;20324;-63
2022/10/05 00:36:13;;;;;;;15.15;4.47;;;14.40;99.90;;;;;;4993728;28;20575;-63
2022/10/05 00:38:41;;;;;;;7.82;4.20;;;15.30;99.90;;;;;;5002865;28;20195;-64
2022/10/05 00:41:14;;;;;;;4.97;3.92;;;14.60;99.90;;;;;;4990218;28;20210;-63
2022/10/05 00:44:02;;;;;;;7.22;4.75;;;14.70;99.90;;;;;;4988853;28;20202;-64
2022/10/05 00:46:38;;;;;;;8.07;4.60;;;14.70;99.90;;;;;;4986083;28;20210;-63
2022/10/05 00:49:19;;;;;;;8.32;4.05;;;14.70;99.90;;;;;;4973338;28;20211;-63
2022/10/05 00:51:53;;;;;;;8.82;4.20;;;14.70;99.90;;;;;;4989470;28;20449;-64
2022/10/05 00:54:27;;;;;;;7.60;4.20;;;14.70;99.90;;;;;;4997410;28;20206;-63
2022/10/05 00:57:18;;;;;;;7.13;4.28;;;14.70;99.90;;;;;;4985950;28;20774;-63
2022/10/05 00:59:57;;;;;;;6.15;4.00;;;14.30;99.90;;;;;;4965756;28;20869;-64
2022/10/05 01:02:30;;;;;;;5.63;4.10;;;14.70;99.90;;;;;;5000364;28;20225;-63
2022/10/05 01:05:03;;;;;;;6.93;4.20;;;14.70;99.90;;;;;;4969384;28;21255;-63
2022/10/05 01:07:43;;;;;;;7.18;4.30;;;14.60;99.90;;;;;;4995029;28;20222;-63
2022/10/05 01:10:18;;;;;;;9.48;4.03;;;16.30;99.90;;;;;;5002059;28;20190;-63
2022/10/05 01:12:54;;;;;;;5.07;4.40;;;14.60;99.90;;;;;;4978116;28;20218;-64
2022/10/05 01:15:29;;;;;;;11.57;4.97;;;14.70;99.90;;;;;;4979720;28;20202;-63
2022/10/05 01:18:02;;;;;;;7.78;3.80;;;14.60;99.90;;;;;;4998459;28;20201;-63
2022/10/05 01:20:39;;;;;;;9.70;4.70;;;14.60;99.90;;;;;;4971402;28;20202;-63
2022/10/05 01:23:34;;;;;;;9.95;5.00;;;14.70;99.90;;;;;;4997418;28;20319;-63
2022/10/05 01:26:17;;;;;;;7.88;4.65;;;14.60;99.90;;;;;;4986941;28;20210;-64
2022/10/05 01:28:51;;;;;;;6.50;4.50;;;14.60;99.90;;;;;;4968057;28;20863;-64
2022/10/05 01:31:25;;;;;;;7.68;4.30;;;14.40;99.90;;;;;;4984568;28;20230;-64
2022/10/05 01:34:01;;;;;;;7.75;4.70;;;14.60;99.90;;;;;;5003329;28;20205;-63
2022/10/05 01:36:34;;;;;;;8.63;4.60;;;14.60;99.90;;;;;;4977558;28;20708;-64
2022/10/05 01:39:10;;;;;;;7.97;4.28;;;14.60;99.90;;;;;;5005608;28;20313;-63
2022/10/05 01:41:45;;;;;;;8.50;4.97;;;14.80;99.90;;;;;;5009567;28;20226;-63
2022/10/05 01:44:16;;;;;;;7.97;5.07;;;14.60;99.90;;;;;;4976698;28;20676;-63
2022/10/05 01:46:49;;;;;;;6.72;4.45;;;14.60;99.90;;;;;;4992990;28;20199;-63
2022/10/05 01:49:31;;;;;;;8.90;5.10;;;14.60;99.90;;;;;;5009279;28;21004;-63
2022/10/05 01:52:05;;;;;;;8.20;4.82;;;14.60;99.90;;;;;;4973087;28;20219;-63
2022/10/05 01:54:45;;;;;;;7.10;4.10;;;14.40;99.90;;;;;;5000845;28;20700;-63
2022/10/05 01:57:23;;;;;;;7.45;4.72;;;14.60;99.90;;;;;;4992236;28;20204;-64
2022/10/05 02:00:02;;;;;;;7.82;5.03;;;14.50;99.90;;;;;;4998692;28;20206;-63
2022/10/05 02:02:34;;;;;;;6.05;4.18;;;14.50;99.90;;;;;;4990867;28;20225;-63
2022/10/05 02:05:05;;;;;;;7.78;5.43;;;;;;;;;;4986064;28;20202;-64
2022/10/05 02:07:38;;;;;;;14.38;6.40;;;14.60;99.90;;;;;;5006486;28;20206;-63
2022/10/05 02:10:11;;;;;;;6.78;5.07;;;14.60;99.90;;;;;;4994224;28;20210;-63
2022/10/05 02:12:38;;;;;;;7.07;5.40;;;14.60;99.90;;;;;;4978320;28;20230;-64
2022/10/05 02:15:12;;;;;;;7.40;4.97;;;14.60;99.90;;;;;;4974951;28;20206;-63
2022/10/05 02:17:45;;;;;;;7.53;5.30;;;14.60;99.90;;;;;;4973661;28;20195;-64
2022/10/05 02:20:20;;;;;;;9.50;5.15;;;14.60;99.90;;;;;;4956474;28;20229;-64
2022/10/05 02:22:51;;;;;;;6.07;4.68;;;14.50;99.90;;;;;;4987887;28;20230;-64
2022/10/05 02:25:21;;;;;;;5.50;4.78;;;14.60;99.90;;;;;;4972244;28;20682;-64
2022/10/05 02:27:53;;;;;;;11.43;5.18;;;14.50;99.90;;;;;;4980187;28;20781;-63
2022/10/05 02:30:21;;;;;;;8.75;4.75;;;14.00;99.90;;;;;;4964599;28;20234;-64
2022/10/05 02:32:54;;;;;;;7.97;4.63;;;14.60;99.90;;;;;;4971835;28;20207;-63
2022/10/05 02:35:21;;;;;;;7.50;4.82;;;14.60;99.90;;;;;;4985093;28;20202;-63
2022/10/05 02:37:59;;;;;;;8.35;5.35;;;14.80;99.90;;;;;;4961236;28;20206;-64
2022/10/05 02:40:37;;;;;;;6.20;4.85;;;14.50;99.90;;;;;;4977018;28;20210;-63
2022/10/05 02:43:14;;;;;;;5.88;5.07;;;14.50;99.90;;;;;;4983682;28;20834;-64
2022/10/05 02:45:52;;;;;;;9.32;5.68;;;14.50;99.90;;;;;;4977594;28;20217;-64
2022/10/05 02:48:25;;;;;;;7.90;5.47;;;14.70;99.90;;;;;;4968595;28;20203;-64
2022/10/05 02:51:01;;;;;;;14.88;5.30;;;14.50;99.90;;;;;;4967092;28;20214;-64
2022/10/05 02:53:36;;;;;;;10.10;5.55;;;14.60;99.90;;;;;;4982398;28;20233;-64
2022/10/05 02:56:14;;;;;;;9.45;5.00;;;14.50;99.90;;;;;;4975732;28;20966;-64
2022/10/05 02:58:50;;;;;;;9.00;4.80;;;14.40;99.90;;;;;;4985842;28;20200;-64
2022/10/05 03:01:24;;;;;;;6.88;5.38;;;14.50;99.90;;;;;;4972084;28;20207;-64
2022/10/05 03:03:59;;;;;;;10.85;5.13;;;14.60;99.90;;;;;;4967779;28;20233;-63
2022/10/05 03:06:30;;;;;;;8.70;5.32;;;14.20;99.90;;;;;;4984093;28;20195;-63
2022/10/05 03:09:02;;;;;;;8.35;5.68;;;14.40;99.90;;;;;;4956433;28;20212;-63
2022/10/05 03:11:35;;;;;;;10.80;5.45;;;14.60;99.90;;;;;;4978433;28;20230;-64
2022/10/05 03:14:08;;;;;;;9.85;6.03;;;14.40;99.90;;;;;;4987103;28;20234;-63
2022/10/05 03:16:47;;;;;;;9.70;5.85;;;14.40;99.90;;;;;;4988653;28;20200;-63
2022/10/05 03:19:32;;;;;;;10.25;5.80;;;14.40;99.90;;;;;;4949603;28;20209;-64
2022/10/05 03:22:07;;;;;;;11.43;5.50;;;14.40;99.90;;;;;;4986682;28;20203;-64
2022/10/05 03:24:59;;;;;;;9.93;6.18;;;14.40;99.90;;;;;;4935078;28;20303;-63
2022/10/05 03:27:37;;;;;;;9.82;5.40;;;14.40;99.90;;;;;;4969237;28;20464;-63
2022/10/05 03:30:10;;;;;;;8.05;5.45;;;14.40;99.90;;;;;;4968394;28;20210;-63
2022/10/05 03:32:50;;;;;;;6.13;4.90;;;14.40;99.90;;;;;;4956303;28;20818;-64
2022/10/05 03:35:23;;;;;;;7.28;5.63;;;14.40;99.90;;;;;;4957834;28;20222;-64
2022/10/05 03:37:57;;;;;;;7.97;5.93;;;14.40;99.90;;;;;;4977223;28;20210;-63
2022/10/05 03:40:32;;;;;;;11.40;6.00;;;14.60;99.90;;;;;;4954212;28;20233;-63
2022/10/05 03:43:15;;;;;;;8.80;5.35;;;14.40;99.90;;;;;;4974244;28;20233;-63
2022/10/05 03:45:52;;;;;;;7.53;5.45;;;14.40;99.90;;;;;;4965168;28;20684;-64
2022/10/05 03:48:27;;;;;;;9.43;5.90;;;14.40;99.90;;;;;;4970430;28;20198;-63
2022/10/05 03:51:04;;;;;;;9.00;5.45;;;14.40;99.90;;;;;;4960918;28;20206;-63
2022/10/05 03:53:38;;;;;;;7.80;5.57;;;14.40;99.90;;;;;;4968617;28;20198;-64
2022/10/05 03:56:09;;;;;;;9.02;5.20;;;14.20;99.90;;;;;;4951639;28;20210;-63
2022/10/05 03:58:41;;;;;;;10.90;5.47;;;14.80;99.90;;;;;;4977617;28;20209;-63
2022/10/05 04:01:11;;;;;;;7.32;5.40;;;14.30;99.90;;;;;;4976905;28;20206;-62
2022/10/05 04:03:44;;;;;;;8.10;5.55;;;14.60;99.90;;;;;;4985519;28;20931;-63
2022/10/05 04:06:14;;;;;;;7.30;5.53;;;14.30;99.90;;;;;;4955853;28;20227;-64
2022/10/05 04:08:49;;;;;;;12.23;5.55;;;14.40;99.90;;;;;;4970553;28;20222;-63
2022/10/05 04:11:20;;;;;;;10.15;5.78;;;14.30;99.90;;;;;;4961124;28;20238;-63
2022/10/05 04:13:52;;;;;;;7.68;5.93;;;14.40;99.90;;;;;;4966129;28;20218;-63
2022/10/05 04:16:24;;;;;;;9.73;5.43;;;14.30;99.90;;;;;;4975026;28;20198;-63
2022/10/05 04:19:00;;;;;;;13.15;5.95;;;14.30;99.90;;;;;;4975794;28;20679;-63
2022/10/05 04:21:32;;;;;;;8.15;6.15;;;14.30;99.90;;;;;;4950991;28;20202;-63
2022/10/05 04:24:09;;;;;;;11.45;6.13;;;14.00;99.90;;;;;;4955132;28;20704;-63
2022/10/05 04:26:41;;;;;;;9.75;5.45;;;14.30;99.90;;;;;;4948892;28;20215;-63
2022/10/05 04:29:17;;;;;;;9.23;5.88;;;14.20;99.90;;;;;;4966966;28;20207;-63
2022/10/05 04:31:56;;;;;;;10.38;5.97;;;14.30;99.90;;;;;;4974745;28;20202;-63
2022/10/05 04:34:52;;;;;;;11.35;5.63;;;14.20;99.90;;;;;;4983212;28;20226;-63
2022/10/05 04:37:25;;;;;;;8.98;6.35;;;15.30;99.90;;;;;;4953443;28;20207;-63
2022/10/05 04:40:05;;;;;;;10.18;5.75;;;14.30;99.90;;;;;;4965989;28;20226;-62
2022/10/05 04:42:37;;;;;;;9.55;5.80;;;14.40;99.90;;;;;;4948755;28;20218;-63
2022/10/05 04:45:14;;;;;;;10.05;6.03;;;14.40;99.90;;;;;;4969796;28;20223;-62
2022/10/05 04:48:00;;;;;;;9.93;5.60;;;14.40;99.90;;;;;;4963496;28;20239;-63
2022/10/05 04:50:44;;;;;;;7.93;6.18;;;14.20;99.90;;;;;;4981536;28;20203;-63
2022/10/05 04:53:22;;;;;;;7.50;5.53;;;14.30;99.90;;;;;;4958525;28;20199;-63
2022/10/05 04:55:56;;;;;;;10.95;6.13;;;14.30;99.90;;;;;;4977783;28;20231;-63
2022/10/05 04:58:37;;;;;;;8.13;5.68;;;14.30;99.90;;;;;;4936264;28;20234;-63
2022/10/05 05:01:18;;;;;;;7.55;5.43;;;14.30;99.90;;;;;;4955563;28;20967;-63
2022/10/05 05:03:58;;;;;;;7.32;5.60;;;14.40;99.90;;;;;;4958596;28;20638;-63
2022/10/05 05:06:36;;;;;;;8.30;5.55;;;14.30;99.90;;;;;;4976112;28;20256;-63
2022/10/05 05:09:29;;;;;;;8.75;5.80;;;14.70;99.90;;;;;;4949497;28;20329;-64
2022/10/05 05:12:14;;;;;;;8.00;5.75;;;14.10;99.90;;;;;;4958010;28;20230;-62
2022/10/05 05:14:55;;;;;;;8.35;6.03;;;14.30;99.90;;;;;;5002599;28;20499;-63
2022/10/05 05:17:36;;;;;;;13.80;6.07;;;14.20;99.90;;;;;;4994372;28;20762;-63
2022/10/05 05:20:17;;;;;;;9.30;6.13;;;14.30;99.90;;;;;;4995254;28;20926;-62
2022/10/05 05:22:48;;;;;;;10.43;5.88;;;14.20;99.90;;;;;;4986898;28;20210;-62
2022/10/05 05:25:28;;;;;;;11.00;5.90;;;14.20;99.90;;;;;;5001775;28;20302;-63
2022/10/05 05:27:59;;;;;;;8.55;6.03;;;14.40;99.90;;;;;;4971032;28;20217;-63
2022/10/05 05:30:35;;;;;;;15.98;6.78;;;14.20;99.90;;;;;;5004424;28;20198;-63
2022/10/05 05:33:17;;;;;;;12.30;5.82;;;14.20;99.90;;;;;;4978776;28;20218;-63
2022/10/05 05:36:19;;;;;;;9.27;6.32;;;14.20;99.90;;;;;;5012825;28;20205;-63
2022/10/05 05:38:54;;;;;;;10.52;6.55;;;14.20;99.90;;;;;;4992208;28;20201;-63
2022/10/05 05:41:26;;;;;;;10.88;6.35;;;14.40;99.90;;;;;;5003909;28;20221;-64
2022/10/05 05:44:04;;;;;;;9.50;6.35;;;14.20;99.90;;;;;;4973125;28;20240;-63
2022/10/05 05:46:35;;;;;;;10.15;6.88;;;14.00;99.90;;;;;;4993988;28;20199;-63
2022/10/05 05:49:07;;;;;;;8.35;6.20;;;14.20;99.90;;;;;;4976450;28;20672;-63
2022/10/05 05:51:37;;;;;;;10.70;6.13;;;14.00;99.90;;;;;;5001125;28;20201;-64
2022/10/05 05:54:21;;;;;;;10.10;6.78;;;14.20;99.90;;;;;;4986860;28;20210;-63
2022/10/05 05:56:54;;;;;;;14.73;6.95;;;14.20;99.90;;;;;;4996941;28;20371;-63
2022/10/05 05:59:26;;;;;;;10.23;6.72;;;14.20;99.90;;;;;;4967185;28;21127;-64
2022/10/05 06:01:58;;;;;;;9.85;6.57;;;14.20;99.90;;;;;;5004131;28;20197;-63
2022/10/05 06:04:28;;;;;;;9.73;6.93;;;14.30;99.90;;;;;;4981522;28;21199;-63
2022/10/05 06:06:58;;;;;;;14.57;7.30;;;14.30;99.90;;;;;;5002260;28;20199;-63
2022/10/05 06:09:32;;;;;;;11.05;6.57;;;14.20;99.90;;;;;;4976546;28;20350;-64
2022/10/05 06:12:05;;;;;;;9.65;7.20;;;14.00;99.90;;;;;;5003162;28;20252;-63
2022/10/05 06:14:37;;;;;;;15.02;7.57;;;14.20;99.90;;;;;;4971966;28;20214;-62
2022/10/05 06:17:10;;;;;;;12.15;6.95;;;13.90;99.90;;;;;;5006780;28;20202;-62
2022/10/05 06:19:38;;;;;;;9.40;6.50;;;14.30;99.90;;;;;;4996563;28;20230;-63
2022/10/05 06:22:11;;;;;;;10.93;6.72;;;14.50;99.90;;;;;;4997386;28;20206;-63
2022/10/05 06:24:55;;;;;;;8.48;6.47;;;14.30;99.90;;;;;;5007608;28;20237;-64
2022/10/05 06:27:26;;;;;;;10.18;6.90;;;14.30;99.90;;;;;;4991779;28;20586;-63
2022/10/05 06:30:06;;;;;;;15.23;7.45;;;14.30;99.90;;;;;;5008108;28;20195;-63
2022/10/05 06:32:42;;;;;;;10.43;6.85;;;14.20;99.90;;;;;;5000569;28;20206;-64
2022/10/05 06:35:16;;;;;;;11.50;7.35;;;15.60;99.90;;;;;;4986126;28;20237;-63
2022/10/05 06:37:57;;;;;;;8.57;6.28;;;14.50;99.90;;;;;;4995919;28;20202;-63
2022/10/05 06:40:38;;;;;;;10.70;7.30;;;14.50;99.90;;;;;;5008019;28;20194;-63
2022/10/05 06:43:18;;;;;;;12.73;6.85;;;14.40;99.90;;;;;;4987672;28;20206;-64
2022/10/05 06:45:58;;;;;;;10.93;7.10;;;14.40;99.90;;;;;;5004894;28;20202;-64
2022/10/05 06:48:35;;;;;;;17.13;7.57;;;14.60;99.90;;;;;;4990276;28;20296;-64
2022/10/05 06:51:11;;;;;;;13.30;7.20;;;14.40;99.90;;;;;;4996803;28;20222;-64
2022/10/05 06:53:44;;;;;;;12.07;6.80;;;14.40;99.90;;;;;;5001319;28;20293;-64
2022/10/05 06:56:19;;;;;;;9.60;6.63;;;14.50;99.90;;;;;;4986624;28;20194;-64
2022/10/05 06:58:53;;;;;;;10.70;7.47;;;14.50;99.90;;;;;;5008845;28;20206;-63
2022/10/05 07:01:34;;;;;;;9.50;6.82;;;13.40;99.90;;;;;;4979072;28;20206;-64
2022/10/05 07:04:18;;;;;;;12.25;6.97;;;14.50;99.90;;;;;;5006688;28;20225;-63
2022/10/05 07:06:51;;;;;;;13.68;6.97;;;14.70;99.90;;;;;;5009270;28;20570;-64
2022/10/05 07:09:30;;;;;;;11.48;7.43;;;14.50;99.90;;;;;;4993958;28;20211;-63
2022/10/05 07:12:18;;;;;;;11.32;7.70;;;14.30;99.90;;;;;;4983828;28;20242;-63
2022/10/05 07:15:23;;;;;;;12.68;6.88;;;14.60;99.90;;;;;;4973054;28;20203;-63
2022/10/05 07:18:03;;;;;;;12.43;7.63;;;14.40;99.90;;;;;;4959125;28;20237;-63
2022/10/05 07:20:32;;;;;;;10.70;6.97;;;;;;;;;;4988003;28;20226;-63
2022/10/05 07:23:24;;;;;;;11.27;8.13;;;14.30;99.90;;;;;;4984800;28;20213;-63
2022/10/05 07:25:58;;;;;;;13.38;7.25;;;14.50;99.90;;;;;;4983884;28;20203;-63
2022/10/05 07:28:32;;;;;;;10.13;7.07;;;14.50;99.90;;;;;;4961390;28;20273;-64
2022/10/05 07:31:06;;;;;;;10.85;7.65;;;14.50;99.90;;;;;;4984937;28;20209;-64
2022/10/05 07:33:40;;;;;;;13.40;7.70;;;14.30;99.90;;;;;;4958787;28;20207;-64
2022/10/05 07:39:05;;;;;;;11.93;7.75;;;14.70;99.90;;;;;;4984315;28;20203;-64
2022/10/05 07:41:39;;;;;;;10.38;7.03;;;14.70;99.90;;;;;;4979488;28;22042;-63
2022/10/05 07:44:13;;;;;;;16.85;7.50;;;14.80;99.90;;;;;;4967624;28;20811;-64
2022/10/05 07:46:56;;;;;;;13.60;7.75;;;14.80;99.90;;;;;;4986126;28;20201;-63
2022/10/05 07:49:31;;;;;;;13.20;7.50;;;14.90;99.90;;;;;;4956142;28;20967;-64
2022/10/05 07:52:01;;;;;;;10.27;7.47;;;14.90;99.90;;;;;;4986442;28;20207;-64
2022/10/05 07:54:37;;;;;;;9.73;6.80;;;15.20;99.90;;;;;;4987769;28;20209;-63
2022/10/05 07:57:14;;;;;;;12.32;6.75;;;15.00;99.90;;;;;;4977248;28;20214;-63
2022/10/05 07:59:48;;;;;;;12.18;7.35;;;15.20;99.90;;;;;;4965506;28;20201;-63
2022/10/05 08:02:26;;;;;;;13.57;7.95;;;15.00;99.90;;;;;;4979682;28;20206;-64
2022/10/05 08:04:59;;;;;;;11.43;7.25;;;15.00;99.90;;;;;;4935320;28;20231;-63
2022/10/05 08:07:29;;;;;;;11.75;6.90;;;15.00;99.90;;;;;;4977764;28;20224;-63
2022/10/05 08:10:02;;;;;;;9.75;6.15;;;15.20;99.90;;;;;;4967878;28;20229;-63
2022/10/05 08:12:32;;;;;;;8.77;6.70;;;;;;;;;;4975004;28;20253;-63
2022/10/05 08:15:05;;;;;;;8.90;6.28;;;15.20;99.90;;;;;;4961170;28;20750;-63
2022/10/05 08:17:48;;;;;;;9.50;7.15;;;15.20;99.90;;;;;;4988674;28;20207;-62
2022/10/05 08:20:38;;;;;;;11.50;7.25;;;15.10;99.90;;;;;;4959139;28;20215;-63
2022/10/05 08:23:17;;;;;;;11.45;7.03;;;11.90;99.90;;;;;;4976292;28;20441;-63
2022/10/05 08:25:56;;;;;;;9.55;6.45;;;15.10;99.90;;;;;;4975251;28;20241;-64
2022/10/05 08:28:27;;;;;;;14.93;7.70;;;15.10;99.90;;;;;;4985631;28;20206;-64
2022/10/05 08:31:03;;;;;;;9.93;6.90;;;15.10;99.90;;;;;;4954069;28;20210;-63
2022/10/05 08:33:38;;;;;;;9.32;7.15;;;15.10;99.90;;;;;;4981058;28;20213;-64
2022/10/05 08:36:10;;;;;;;11.77;8.23;;;15.30;99.90;;;;;;4951689;28;20551;-63
2022/10/05 08:38:38;;;;;;;10.45;7.95;;;15.10;99.90;;;;;;4972057;28;20661;-64
2022/10/05 08:41:32;;;;;;;8.95;6.82;;;15.20;99.90;;;;;;4976437;28;20214;-63
2022/10/05 08:44:34;;;;;;;12.18;7.15;;;15.20;99.90;;;;;;4981405;28;20237;-63
2022/10/05 08:47:20;;;;;;;10.30;7.10;;;15.20;99.90;;;;;;4915962;28;20261;-63
2022/10/05 08:50:17;;;;;;;7.03;5.97;;;15.20;99.90;;;;;;4960256;28;20230;-63
2022/10/05 08:53:19;;;;;;;15.02;7.93;;;15.20;99.90;;;;;;4977250;28;20241;-63
2022/10/05 08:56:00;;;;;;;9.73;6.38;;;15.20;99.90;;;;;;4964066;28;20296;-62
2022/10/05 08:58:56;;;;;;;9.35;6.60;;;15.30;99.90;;;;;;4963195;28;20227;-63
2022/10/05 09:01:31;;;;;;;8.52;6.30;;;15.30;99.90;;;;;;4974065;28;20306;-64
2022/10/05 09:04:16;;;;;;;10.57;5.95;;;15.10;99.90;;;;;;4978132;28;21118;-63
2022/10/05 09:07:07;;;;;;;13.02;6.47;;;13.80;99.90;;;;;;4946827;28;20269;-64
2022/10/05 09:09:53;;;;;;;8.15;5.65;;;15.30;99.90;;;;;;4967680;28;20783;-63
2022/10/05 09:12:44;;;;;;;7.85;6.20;;;15.30;99.90;;;;;;4980380;28;20243;-64
2022/10/05 09:15:37;;;;;;;10.32;6.30;;;15.20;99.90;;;;;;4989036;28;20216;-63
2022/10/05 09:18:29;;;;;;;9.80;6.05;;;15.40;99.90;;;;;;4954595;28;20219;-63
2022/10/05 09:21:02;;;;;;;9.85;5.68;;;15.20;99.90;;;;;;4957694;28;20212;-62
2022/10/05 09:23:38;;;;;;;6.80;5.57;;;15.30;99.90;;;;;;4976042;28;20298;-63
2022/10/05 09:26:12;;;;;;;7.00;5.20;;;13.50;99.90;;;;;;4980778;28;20229;-63
2022/10/05 09:28:54;;;;;;;7.88;5.40;;;15.40;99.90;;;;;;4980594;28;20230;-62
2022/10/05 09:31:45;;;;;;;12.18;5.95;;;15.10;99.90;;;;;;4992455;28;20199;-63
2022/10/05 09:34:30;;;;;;;7.38;5.82;;;15.40;99.90;;;;;;4967408;28;20211;-63
2022/10/05 09:37:30;;;;;;;9.60;5.60;;;15.40;99.90;;;;;;4962586;28;20215;-63
2022/10/05 09:40:47;;;;;;;7.43;5.60;;;15.40;99.90;;;;;;4932321;28;20272;-63
2022/10/05 09:43:50;;;;;;;9.68;5.75;;;15.20;99.90;;;;;;4987056;28;20242;-63
2022/10/05 09:46:52;;;;;;;9.55;6.47;;;15.60;99.90;;;;;;4987421;28;20242;-63
2022/10/05 09:50:01;;;;;;;9.20;5.63;;;15.60;99.90;;;;;;4989587;28;20214;-63
2022/10/05 09:53:10;;;;;;;10.40;6.03;;;15.30;99.90;;;;;;4993001;28;20598;-62
2022/10/05 09:56:19;;;;;;;7.20;6.10;;;15.50;99.90;;;;;;4986321;28;20302;-63
2022/10/05 09:59:26;;;;;;;8.50;6.25;;;15.50;99.90;;;;;;4966606;28;20214;-63
2022/10/05 10:02:15;;;;;;;8.00;5.63;;;15.60;99.90;;;;;;4978694;28;20199;-63
2022/10/05 10:05:14;;;;;;;6.50;5.38;;;15.50;99.90;;;;;;4972930;28;20230;-64
2022/10/05 10:07:55;;;;;;;8.57;6.05;;;15.50;99.90;;;;;;4990656;28;20206;-63
2022/10/05 10:10:48;;;;;;;6.75;5.30;;;15.60;99.90;;;;;;4964133;28;20199;-63
2022/10/05 10:13:52;;;;;;;5.78;5.20;;;15.60;99.90;;;;;;4986475;28;20213;-63
2022/10/05 10:16:32;;;;;;;6.45;5.00;;;15.70;99.90;;;;;;4989337;28;20304;-63
2022/10/05 10:19:15;;;;;;;5.82;5.20;;;15.70;99.90;;;;;;4954643;28;20816;-63
2022/10/05 10:22:33;;;;;;;5.97;4.78;;;15.80;99.90;;;;;;4952250;28;20227;-63
2022/10/05 10:25:23;;;;;;;7.10;4.00;;;16.40;99.90;;;;;;4969839;28;20230;-63
2022/10/05 10:28:06;;;;;;;5.13;4.63;;;15.80;99.90;;;;;;4975493;28;20230;-63
2022/10/05 10:30:54;;;;;;;7.57;4.43;;;15.80;99.90;;;;;;4970221;28;20230;-63
2022/10/05 10:33:44;;;;;;;5.60;4.50;;;15.90;99.90;;;;;;4959114;28;20227;-63
2022/10/05 10:36:16;;;;;;;5.32;3.92;;;15.90;99.90;;;;;;4980955;28;20203;-61
2022/10/05 10:38:54;;;;;;;4.85;3.88;;;16.60;99.90;;;;;;4965700;28;20395;-63
2022/10/05 10:41:57;;;;;;;5.47;3.63;;;15.70;99.90;;;;;;4976941;28;20207;-63
2022/10/05 10:44:50;;;;;;;6.05;3.97;;;15.90;99.90;;;;;;4968696;28;20221;-63
2022/10/05 10:47:38;;;;;;;4.10;3.70;;;16.00;99.90;;;;;;4967763;28;20230;-64
2022/10/05 10:50:40;;;;;;;6.18;3.80;;;15.90;99.90;;;;;;4971534;28;20207;-65
2022/10/05 10:53:32;;;;;;;8.20;3.78;;;15.90;99.90;;;;;;4939455;28;20226;-62
2022/10/05 10:56:18;;;;;;;6.43;3.65;;;16.00;99.90;;;;;;4943335;28;20227;-64
2022/10/05 10:59:22;;;;;;;5.78;2.97;;;16.00;99.90;;;;;;4973526;28;20238;-63
2022/10/05 11:02:07;;;;;;;3.75;3.35;;;15.90;99.90;;;;;;4966979;28;20207;-64
2022/10/05 11:05:00;;;;;;;5.28;3.05;;;15.80;99.90;;;;;;4945653;28;20226;-63
2022/10/05 11:07:49;;;;;;;9.20;3.17;;;16.10;99.90;;;;;;4978474;28;20199;-64
2022/10/05 11:10:48;;;;;;;4.78;2.97;;;16.10;99.90;;;;;;4957464;28;20427;-64
2022/10/05 11:13:30;;;;;;;4.35;3.10;;;16.10;99.90;;;;;;4977070;28;20210;-63
2022/10/05 11:16:23;;;;;;;6.68;3.40;;;16.30;99.90;;;;;;4989496;28;20208;-63
2022/10/05 11:19:06;;;;;;;3.83;2.90;;;16.20;99.90;;;;;;4972456;28;20209;-63
2022/10/05 11:21:43;;;;;;;3.65;2.88;;;16.20;99.90;;;;;;4965180;28;20606;-65
2022/10/05 11:24:50;;;;;;;3.45;2.97;;;16.00;99.90;;;;;;4952144;28;20242;-63
2022/10/05 11:27:39;;;;;;;3.97;2.78;;;16.30;99.90;;;;;;4971039;28;20791;-64
2022/10/05 11:30:45;;;;;;;4.05;2.67;;;16.10;99.90;;;;;;4980071;28;20666;-63
2022/10/05 11:33:50;;;;;;;4.43;2.95;;;16.50;99.90;;;;;;4984166;28;20211;-63
2022/10/05 11:36:59;;;;;;;2.58;2.38;;;16.40;99.90;;;;;;4961930;28;20223;-63
2022/10/05 11:39:39;;;;;;;3.72;2.80;;;16.30;99.90;;;;;;4949486;28;20229;-63
2022/10/05 11:42:44;;;;;;;2.63;2.40;;;16.40;99.90;;;;;;4970468;28;20249;-63
2022/10/05 11:45:26;;;;;;;3.35;2.90;;;16.40;99.90;;;;;;4982099;28;20227;-63
2022/10/05 11:48:23;;;;;;;2.95;2.33;;;16.50;99.90;;;;;;4980842;28;20210;-63
2022/10/05 11:51:03;;;;;;;5.07;3.25;;;16.60;99.90;;;;;;4953581;28;20867;-63
2022/10/05 11:53:39;;;;;;;5.75;2.67;;;16.60;99.90;;;;;;4983597;28;20284;-63
2022/10/05 11:56:16;;;;;;;2.97;2.67;;;16.50;99.90;;;;;;4956728;28;20700;-64
2022/10/05 11:58:53;;;;;;;3.30;2.97;;;16.60;99.90;;;;;;4965537;28;20925;-64
2022/10/05 12:01:27;;;;;;;2.90;2.60;;;16.60;99.90;;;;;;4933402;28;20250;-63
2022/10/05 12:04:04;;;;;;;3.40;2.47;;;16.60;99.90;;;;;;4955102;28;20245;-63
2022/10/05 12:07:04;;;;;;;3.40;2.85;;;16.60;99.90;;;;;;4949499;28;20238;-63
2022/10/05 12:12:36;;;;;;;3.55;2.53;;;16.70;99.90;;;;;;4943681;28;20275;-63
2022/10/05 12:15:12;;;;;;;6.20;2.60;;;16.90;99.90;;;;;;4982182;28;21476;-63
2022/10/05 12:17:47;;;;;;;2.90;2.60;;;16.70;99.90;;;;;;4986345;28;20197;-63
2022/10/05 12:20:20;;;;;;;3.63;2.92;;;16.70;99.90;;;;;;4992248;28;20201;-63
2022/10/05 12:22:52;;;;;;;3.25;2.72;;;18.70;99.90;;;;;;4977402;28;20206;-64
2022/10/05 12:25:25;;;;;;;3.53;2.60;;;16.70;99.90;;;;;;5001500;28;20241;-65
2022/10/05 12:27:57;;;;;;;4.65;2.70;;;16.80;99.90;;;;;;4974938;28;20245;-64
2022/10/05 12:30:32;;;;;;;3.90;2.38;;;16.80;99.90;;;;;;4969794;28;20939;-64
2022/10/05 12:33:06;;;;;;;4.30;3.10;;;16.80;99.90;;;;;;4999323;28;20225;-63
2022/10/05 12:35:40;;;;;;;4.18;2.25;;;16.90;99.90;;;;;;4993241;28;21044;-62
2022/10/05 12:38:16;;;;;;;6.10;2.80;;;17.00;99.90;;;;;;4980779;23;20246;-62
2022/10/05 12:40:50;;;;;;;4.20;2.30;;;16.90;99.90;;;;;;4983691;28;20210;-63
2022/10/05 12:43:25;;;;;;;5.10;2.80;;;17.10;99.90;;;;;;4963639;28;20225;-64
2022/10/05 12:46:00;;;;;;;9.32;2.58;;;17.10;99.90;;;;;;4989739;28;20233;-64
2022/10/05 12:49:00;;;;;;;4.15;2.90;;;18.80;99.90;;;;;;4984445;28;20225;-64
2022/10/05 12:51:37;;;;;;;5.28;2.63;;;17.10;99.90;;;;;;4984021;28;20209;-63
2022/10/05 12:54:13;;;;;;;5.65;2.42;;;17.10;99.90;;;;;;4973733;28;20225;-63
2022/10/05 12:56:49;;;;;;;5.45;3.10;;;17.20;99.90;;;;;;4996970;28;20221;-63
2022/10/05 12:59:23;;;;;;;6.57;2.88;;;;;;;;;;4959091;28;20327;-63
2022/10/05 13:01:57;;;;;;;5.00;2.78;;;17.30;99.90;;;;;;4982117;28;20661;-64
2022/10/05 13:04:33;;;;;;;5.07;2.95;;;17.20;99.90;;;;;;4994130;28;20219;-64
2022/10/05 13:07:23;;;;;;;7.68;3.20;;;17.20;99.90;;;;;;4989476;28;20395;-64
2022/10/05 13:09:57;;;;;;;4.40;2.67;;;17.30;99.90;;;;;;4980214;28;20225;-64
2022/10/05 13:12:37;;;;;;;4.72;2.78;;;17.30;99.90;;;;;;4999694;28;20209;-63
2022/10/05 13:15:15;;;;;;;2.95;2.22;;;17.30;99.90;;;;;;4932699;28;20978;-64
2022/10/05 13:17:49;;;;;;;4.60;2.63;;;17.50;99.90;;;;;;4980921;28;20216;-64
2022/10/05 13:20:26;;;;;;;4.63;2.67;;;17.30;99.90;;;;;;4983285;28;20240;-64
2022/10/05 13:22:58;;;;;;;4.00;2.65;;;17.30;99.90;;;;;;4995956;28;20537;-64
2022/10/05 13:25:31;;;;;;;3.17;2.60;;;18.90;99.90;;;;;;4969768;28;20230;-64
2022/10/05 13:28:19;;;;;;;5.90;3.05;;;17.40;99.90;;;;;;4983615;28;20198;-64
2022/10/05 13:30:57;;;;;;;4.45;2.80;;;17.10;99.90;;;;;;4949411;28;20324;-64
2022/10/05 13:33:32;;;;;;;5.25;2.75;;;17.40;99.90;;;;;;4989163;28;20713;-63
2022/10/05 13:36:07;;;;;;;4.28;2.55;;;17.40;99.90;;;;;;4982846;28;20212;-65
2022/10/05 13:38:45;;;;;;;3.70;2.65;;;17.40;99.90;;;;;;4992304;28;20229;-64
2022/10/05 13:41:23;;;;;;;5.45;2.80;;;17.40;99.90;;;;;;4974757;28;20226;-64
2022/10/05 13:44:04;;;;;;;6.72;3.05;;;17.40;99.90;;;;;;4974164;28;20207;-65
2022/10/05 13:46:38;;;;;;;6.15;2.60;;;17.40;99.90;;;;;;4989976;28;20222;-64
2022/10/05 13:49:28;;;;;;;4.25;2.67;;;17.40;99.90;;;;;;4985772;28;20244;-64
2022/10/05 13:52:00;;;;;;;2.92;2.65;;;17.40;99.90;;;;;;4986865;28;20222;-63
2022/10/05 13:54:36;;;;;;;4.35;2.75;;;17.60;99.90;;;;;;4996000;28;20587;-64